Time;durP1;ratioP1;P1;durP2;ratioP2;P2;SDS_P1;SDS_P2;PMS_P1;PMS_P2;Temp;Humidity;BMP_temperature;BMP_pressure;BME280_temperature;BME280_humidity;BME280_pressure;Samples;Min_cycle;Max_cycle;Signal;HPM_P1;HPM_P2
2022/05/28 00:01:02;;;;;;;13.27;3.03;;;;;;;11.62;91.86;102090.91;5076291;28;20103;-45
2022/05/28 00:03:28;;;;;;;11.48;2.38;;;;;;;11.71;92.70;102090.78;5075954;28;20327;-45
2022/05/28 00:05:54;;;;;;;17.75;2.75;;;;;;;11.55;92.09;102090.78;5075942;28;20581;-45
2022/05/28 00:08:20;;;;;;;13.98;2.55;;;;;;;11.53;91.91;102088.31;5075619;28;20127;-44
2022/05/28 00:10:46;;;;;;;11.85;2.90;;;;;;;11.59;92.86;102096.44;5076363;28;20099;-46
2022/05/28 00:13:12;;;;;;;14.93;2.67;;;;;;;11.49;91.42;102089.63;5075619;28;20494;-44
2022/05/28 00:15:38;;;;;;;9.77;2.58;;;;;;;11.46;92.48;102094.31;5058183;28;20115;-44
2022/05/28 00:18:03;;;;;;;11.48;2.67;;;;;;;11.50;92.31;102099.00;5075667;28;20017;-45
2022/05/28 00:20:29;;;;;;;10.82;2.95;;;;;;;11.51;92.17;102094.66;5075916;28;20025;-45
2022/05/28 00:22:54;;;;;;;12.85;2.30;;;;;;;11.51;92.29;102098.06;5075900;28;20020;-44
2022/05/28 00:25:21;;;;;;;11.93;2.58;;;;;;;11.46;92.08;102094.31;5076037;28;20028;-45
2022/05/28 00:27:49;;;;;;;12.77;2.85;;;;;;;11.34;92.27;102088.66;5076061;28;20032;-45
2022/05/28 00:30:16;;;;;;;16.08;2.72;;;;;;;11.38;92.12;102095.13;5075474;28;20423;-45
2022/05/28 00:32:42;;;;;;;16.50;2.67;;;;;;;11.28;91.81;102092.69;5075510;28;20032;-45
2022/05/28 00:35:11;;;;;;;10.20;2.50;;;;;;;11.20;91.68;102084.91;5076141;28;20056;-46
2022/05/28 00:37:36;;;;;;;15.85;2.55;;;;;;;11.33;92.59;102087.00;5075582;28;20364;-44
2022/05/28 00:40:05;;;;;;;14.60;2.90;;;;;;;11.36;92.56;102075.53;5057514;28;20029;-44
2022/05/28 00:42:30;;;;;;;17.27;2.70;;;;;;;11.38;92.08;102086.53;5075837;28;20035;-46
2022/05/28 00:44:55;;;;;;;17.02;2.88;;;;;;;11.34;91.46;102086.06;5057193;28;20040;-45
2022/05/28 00:47:21;;;;;;;11.13;2.78;;;;;;;11.21;92.63;102078.75;5058041;28;20020;-45
2022/05/28 00:49:47;;;;;;;15.18;2.70;;;;;;;11.20;92.46;102084.91;5075086;28;20032;-45
2022/05/28 00:52:13;;;;;;;17.10;2.92;;;;;;;11.24;92.55;102081.03;5075057;28;20099;-46
2022/05/28 00:54:43;;;;;;;12.05;2.80;;;;;;;11.28;92.83;102076.34;5075319;28;20039;-44
2022/05/28 00:57:10;;;;;;;12.93;2.50;;;;;;;11.29;92.84;102073.59;5075946;28;20056;-44
2022/05/28 00:59:35;;;;;;;15.40;3.72;;;;;;;11.29;92.50;102073.59;5075562;28;20034;-44
2022/05/28 01:02:08;;;;;;;20.73;3.28;;;;;;;11.24;92.78;102070.66;5074776;28;20024;-44
2022/05/28 01:04:53;;;;;;;20.02;2.95;;;;;;;11.26;92.98;102060.19;5074739;28;20016;-44
2022/05/28 01:07:30;;;;;;;15.32;2.58;;;;;;;11.28;92.82;102072.00;5056719;28;20028;-44
2022/05/28 01:10:04;;;;;;;20.83;3.10;;;;;;;11.27;93.03;102062.59;5074481;28;20422;-44
2022/05/28 01:12:55;;;;;;;14.07;2.70;;;;;;;11.23;93.52;102060.50;5074988;28;20078;-45
2022/05/28 01:15:25;;;;;;;15.95;3.10;;;;;;;11.26;93.25;102055.81;5075000;28;20107;-45
2022/05/28 01:17:58;;;;;;;12.45;2.50;;;;;;;11.26;93.10;102060.97;5075199;28;20028;-44
2022/05/28 01:20:33;;;;;;;16.48;3.17;;;;;;;11.13;93.06;102058.03;5074762;28;20036;-44
2022/05/28 01:23:16;;;;;;;16.33;2.95;;;;;;;11.16;93.32;102068.06;5074670;28;20017;-44
2022/05/28 01:26:21;;;;;;;11.05;2.72;;;;;;;11.13;93.23;102062.41;5074336;28;20032;-46
2022/05/28 01:28:54;;;;;;;16.83;2.55;;;;;;;11.09;93.25;102063.69;5074479;28;20483;-44
2022/05/28 01:31:22;;;;;;;14.20;2.72;;;;;;;11.03;93.29;102057.38;5074231;28;20036;-45
2022/05/28 01:33:49;;;;;;;18.95;3.28;;;;;;;10.94;93.72;102069.50;5074410;28;20028;-44
2022/05/28 01:36:16;;;;;;;17.00;2.97;;;;;;;11.04;94.38;102061.56;5074397;28;20035;-45
2022/05/28 01:38:43;;;;;;;17.27;2.70;;;;;;;11.01;93.35;102067.06;5074057;28;20028;-45
2022/05/28 01:41:10;;;;;;;14.20;2.80;;;;;;;11.03;93.56;102063.38;5074294;28;20083;-44
2022/05/28 01:43:40;;;;;;;19.42;2.90;;;;;;;10.88;93.28;102071.91;5074295;28;20065;-44
2022/05/28 01:46:06;;;;;;;16.95;2.70;;;;;;;10.87;93.13;102070.25;5074316;28;20036;-45
2022/05/28 01:48:33;;;;;;;15.55;2.65;;;;;;;10.93;93.02;102075.59;5074103;28;20028;-45
2022/05/28 01:51:02;;;;;;;27.90;3.03;;;;;;;10.99;92.06;102066.41;5073852;28;20024;-44
2022/05/28 01:56:12;;;;;;;15.45;2.88;;;;;;;10.90;92.86;102075.94;5074620;28;20040;-44
2022/05/28 01:58:38;;;;;;;10.85;2.60;;;;;;;10.94;91.88;102077.25;5073977;28;20024;-45
2022/05/28 02:01:05;;;;;;;15.43;2.40;;;;;;;10.91;91.74;102069.81;5073657;28;20024;-45
2022/05/28 02:03:33;;;;;;;17.77;2.83;;;;;;;10.94;92.47;102074.66;5073703;28;20028;-45
2022/05/28 02:05:58;;;;;;;16.08;3.63;;;;;;;11.02;91.90;102079.06;5073927;28;20469;-45
2022/05/28 02:08:24;;;;;;;17.90;2.90;;;;;;;11.03;91.17;102078.06;5073641;28;20101;-45
2022/05/28 02:11:15;;;;;;;10.90;2.22;;;;;;;10.95;91.16;102075.47;5073521;28;20055;-46
2022/05/28 02:13:55;;;;;;;13.88;2.47;;;;;;;10.91;91.20;102087.09;5058699;28;20017;-45
2022/05/28 02:17:10;;;;;;;16.13;2.70;;;;;;;10.91;91.64;102087.09;5073564;28;20036;-44
2022/05/28 02:19:47;;;;;;;12.55;2.38;;;;;;;10.82;92.06;102084.50;5042717;28;20119;-44
2022/05/28 02:22:27;;;;;;;14.88;2.58;;;;;;;10.85;91.77;102080.78;5073466;28;20031;-44
2022/05/28 02:24:58;;;;;;;14.13;2.60;;;;;;;10.94;91.68;102076.44;5073461;28;20364;-45
2022/05/28 02:27:26;;;;;;;14.85;2.55;;;;;;;10.98;90.87;102077.72;5073370;28;20016;-44
2022/05/28 02:29:51;;;;;;;13.52;2.35;;;;;;;11.04;90.33;102077.09;5073697;28;20032;-44
2022/05/28 02:32:24;;;;;;;12.13;1.95;;;;;;;11.09;89.36;102076.63;5073287;28;20024;-45
2022/05/28 02:34:50;;;;;;;18.17;2.03;;;;;;;11.09;89.31;102076.63;5073261;28;20024;-44
2022/05/28 02:37:21;;;;;;;10.98;1.95;;;;;;;11.14;88.75;102074.41;5073569;28;20016;-44
2022/05/28 02:39:47;;;;;;;10.40;1.67;;;;;;;11.18;88.47;102073.91;5073551;28;20500;-44
2022/05/28 02:42:12;;;;;;;11.30;1.65;;;;;;;11.02;88.51;102077.28;5073226;28;20031;-44
2022/05/28 02:44:38;;;;;;;8.65;1.45;;;;;;;11.03;87.84;102084.06;5073482;28;20025;-44
2022/05/28 02:47:04;;;;;;;11.25;1.67;;;;;;;11.14;86.55;102079.56;5073537;28;20091;-45
2022/05/28 02:49:30;;;;;;;12.43;2.70;;;;;;;11.21;85.41;102077.94;5073156;28;20089;-44
2022/05/28 02:51:56;;;;;;;7.15;1.58;;;;;;;11.18;86.07;102075.69;5073164;28;20036;-44
2022/05/28 02:54:22;;;;;;;9.88;1.58;;;;;;;11.15;86.69;102079.41;5073656;28;20060;-45
2022/05/28 02:56:48;;;;;;;10.48;1.60;;;;;;;11.08;86.33;102088.78;5073295;28;20021;-46
2022/05/28 02:59:14;;;;;;;8.40;1.52;;;;;;;11.15;86.41;102078.59;5073055;28;20456;-45
2022/05/28 03:01:40;;;;;;;10.98;1.90;;;;;;;11.11;85.86;102078.09;5073248;28;20048;-44
2022/05/28 03:04:07;;;;;;;7.63;1.52;;;;;;;11.05;85.93;102089.09;5055060;28;20442;-44
2022/05/28 03:06:35;;;;;;;8.68;1.65;;;;;;;10.98;86.73;102082.91;5072935;28;20119;-44
2022/05/28 03:09:00;;;;;;;7.85;1.50;;;;;;;10.95;86.51;102081.44;5073045;28;20048;-44
2022/05/28 03:11:26;;;;;;;12.40;1.60;;;;;;;10.88;86.96;102087.41;5072917;28;20105;-44
2022/05/28 03:13:51;;;;;;;10.60;1.70;;;;;;;10.84;86.81;102085.13;5072849;28;20047;-44
2022/05/28 03:16:16;;;;;;;10.55;1.77;;;;;;;10.79;86.88;102081.41;5073125;28;20036;-44
2022/05/28 03:18:42;;;;;;;7.97;1.48;;;;;;;10.76;86.02;102089.44;5073164;28;20079;-44
2022/05/28 03:21:08;;;;;;;8.75;1.30;;;;;;;10.78;85.40;102088.34;5073111;28;20535;-44
2022/05/28 03:23:34;;;;;;;5.75;1.38;;;;;;;10.81;86.36;102087.22;5073148;28;20099;-44
2022/05/28 03:26:12;;;;;;;13.43;1.85;;;;;;;10.77;86.09;102089.31;5074800;28;20048;-44
2022/05/28 03:28:37;;;;;;;12.63;1.65;;;;;;;10.73;85.82;102087.19;5076749;28;20024;-44
2022/05/28 03:31:02;;;;;;;8.38;1.67;;;;;;;10.84;85.50;102102.41;5076542;28;20092;-44
2022/05/28 03:33:27;;;;;;;10.88;1.10;;;;;;;10.79;84.73;102094.34;5058547;28;20037;-45
2022/05/28 03:35:53;;;;;;;7.63;1.40;;;;;;;10.80;84.87;102101.13;5076777;28;20016;-45
2022/05/28 03:38:18;;;;;;;11.82;1.83;;;;;;;10.88;84.96;102098.56;5077166;28;20028;-45
2022/05/28 03:40:43;;;;;;;7.65;1.35;;;;;;;10.81;84.24;102110.50;5076846;28;20028;-45
2022/05/28 03:43:09;;;;;;;11.55;1.65;;;;;;;10.84;84.32;102108.38;5076622;28;20032;-45
2022/05/28 03:45:35;;;;;;;13.27;1.60;;;;;;;10.70;85.00;102101.22;5076566;28;20511;-45
2022/05/28 03:48:04;;;;;;;9.43;1.33;;;;;;;10.76;85.43;102103.22;5076243;28;20033;-45
2022/05/28 03:50:30;;;;;;;13.70;2.13;;;;;;;10.71;84.07;102102.06;5076052;28;20024;-44
2022/05/28 03:52:55;;;;;;;8.43;1.52;;;;;;;10.76;84.73;102105.81;5076877;28;20366;-44
2022/05/28 03:55:20;;;;;;;6.25;1.15;;;;;;;10.77;84.24;102107.41;5076400;28;20035;-45
2022/05/28 03:57:47;;;;;;;7.45;1.60;;;;;;;10.78;84.59;102106.44;5076585;28;20036;-44
2022/05/28 04:00:13;;;;;;;10.20;1.45;;;;;;;10.75;83.70;102111.91;5076218;28;20115;-44
2022/05/28 04:02:38;;;;;;;9.82;1.83;;;;;;;10.95;83.57;102119.44;5075865;28;20024;-44
2022/05/28 04:05:04;;;;;;;12.05;1.67;;;;;;;10.91;83.29;102118.94;5076153;28;20031;-44
2022/05/28 04:07:29;;;;;;;14.52;1.70;;;;;;;10.87;83.56;102119.41;5075709;28;20044;-43
2022/05/28 04:09:54;;;;;;;6.85;1.45;;;;;;;10.95;82.36;102125.41;5075648;28;20048;-44
2022/05/28 04:12:20;;;;;;;10.77;1.75;;;;;;;10.97;83.07;102123.50;5075931;28;20021;-46
2022/05/28 04:14:46;;;;;;;5.32;1.48;;;;;;;10.99;82.63;102118.97;5076284;28;20024;-44
2022/05/28 04:17:11;;;;;;;8.30;1.45;;;;;;;11.07;82.38;102113.00;5076000;28;20154;-44
2022/05/28 04:19:36;;;;;;;8.93;1.30;;;;;;;11.00;82.18;102118.00;5075953;28;20086;-44
2022/05/28 04:22:02;;;;;;;11.82;1.70;;;;;;;11.07;82.61;102123.34;5075922;28;20029;-44
2022/05/28 04:24:27;;;;;;;13.57;1.60;;;;;;;11.14;82.33;102121.78;5075861;28;20024;-45
2022/05/28 04:26:52;;;;;;;7.82;1.80;;;;;;;11.11;82.28;102123.88;5076086;28;20016;-44
2022/05/28 04:29:17;;;;;;;10.43;1.90;;;;;;;11.01;82.00;102132.53;5075476;28;20489;-44
2022/05/28 04:31:43;;;;;;;6.78;1.65;;;;;;;10.94;82.98;102123.00;5057976;28;20028;-43
2022/05/28 04:34:08;;;;;;;9.60;1.45;;;;;;;10.92;83.02;102135.28;5075904;28;20043;-44
2022/05/28 04:36:34;;;;;;;10.82;1.38;;;;;;;10.90;83.36;102140.59;5076000;28;20374;-44
2022/05/28 04:38:59;;;;;;;6.93;1.40;;;;;;;10.89;83.48;102127.81;5074980;28;20039;-44
2022/05/28 04:41:24;;;;;;;7.00;1.23;;;;;;;11.09;82.31;102134.34;5075690;28;20035;-44
2022/05/28 04:43:49;;;;;;;17.42;1.60;;;;;;;11.05;81.75;102135.66;5075770;28;20027;-43
2022/05/28 04:46:15;;;;;;;7.90;1.50;;;;;;;11.11;81.66;102139.38;5075575;28;20467;-44
2022/05/28 04:48:40;;;;;;;12.70;1.80;;;;;;;11.25;81.17;102138.78;5075092;28;20027;-44
2022/05/28 04:51:06;;;;;;;9.90;1.45;;;;;;;11.20;81.00;102136.66;5075323;28;20070;-44
2022/05/28 04:53:31;;;;;;;7.90;1.15;;;;;;;11.14;80.83;102133.91;5074914;28;20035;-44
2022/05/28 04:55:56;;;;;;;8.63;1.40;;;;;;;11.37;80.08;102131.53;5074935;28;20053;-45
2022/05/28 04:58:22;;;;;;;7.78;1.40;;;;;;;11.52;79.47;102135.09;5075207;28;20024;-45
2022/05/28 05:00:47;;;;;;;8.07;1.27;;;;;;;11.72;79.17;102138.19;5075129;28;20528;-44
2022/05/28 05:03:13;;;;;;;9.05;1.35;;;;;;;11.88;78.64;102140.00;5075106;28;20027;-44
2022/05/28 05:05:39;;;;;;;7.13;1.17;;;;;;;11.62;77.95;102133.16;5074900;28;20040;-44
2022/05/28 05:08:05;;;;;;;6.88;1.48;;;;;;;11.69;77.02;102135.94;5074936;28;20526;-44
2022/05/28 05:10:31;;;;;;;7.32;1.95;;;;;;;11.69;77.62;102141.09;5074845;28;20512;-44
2022/05/28 05:12:58;;;;;;;11.52;1.80;;;;;;;11.74;77.65;102139.66;5074414;28;20031;-44
2022/05/28 05:15:24;;;;;;;10.13;1.40;;;;;;;11.69;77.04;102141.09;5074585;28;20021;-44
2022/05/28 05:17:49;;;;;;;11.40;1.70;;;;;;;11.93;77.11;102146.31;5074718;28;20024;-45
2022/05/28 05:20:16;;;;;;;10.55;1.98;;;;;;;11.90;76.02;102146.63;5074670;28;20473;-44
2022/05/28 05:22:41;;;;;;;7.55;1.38;;;;;;;12.07;74.99;102144.84;5074650;28;20375;-44
2022/05/28 05:25:07;;;;;;;12.45;1.80;;;;;;;12.13;76.10;102148.56;5074397;28;20013;-48
2022/05/28 05:27:32;;;;;;;8.23;1.55;;;;;;;12.02;74.42;102149.72;5074419;28;20021;-48
2022/05/28 05:29:59;;;;;;;7.68;1.45;;;;;;;12.34;72.97;102150.66;5074291;28;20033;-43
2022/05/28 05:32:25;;;;;;;11.43;1.55;;;;;;;12.32;73.93;102158.59;5074234;28;20031;-40
2022/05/28 05:34:51;;;;;;;9.23;1.48;;;;;;;12.20;73.76;102159.91;5074131;28;20033;-41
2022/05/28 05:37:17;;;;;;;10.05;1.50;;;;;;;12.21;72.69;102152.94;5074715;28;20021;-42
2022/05/28 05:39:42;;;;;;;10.50;1.77;;;;;;;12.22;73.15;102157.16;5074548;28;20447;-41
2022/05/28 05:42:08;;;;;;;9.68;1.55;;;;;;;12.36;71.65;102157.28;5074505;28;20024;-41
2022/05/28 05:44:34;;;;;;;12.55;2.35;;;;;;;14.35;68.53;102167.19;5074050;28;20052;-41
2022/05/28 05:46:59;;;;;;;6.30;1.67;;;;;;;20.37;47.99;102161.09;5073857;28;20414;-41
2022/05/28 05:49:24;;;;;;;12.07;1.60;;;;;;;21.54;43.96;102168.72;5072647;28;20470;-42
2022/05/28 05:51:51;;;;;;;9.63;1.60;;;;;;;21.16;43.65;102162.75;5056498;28;20073;-41
2022/05/28 05:54:17;;;;;;;13.80;1.63;;;;;;;17.63;50.40;102160.75;5056396;28;20467;-40
2022/05/28 05:56:43;;;;;;;10.70;1.80;;;;;;;15.05;58.70;102163.34;5074120;28;20020;-39
2022/05/28 05:59:08;;;;;;;7.50;1.67;;;;;;;14.74;59.98;102169.56;5056112;28;20038;-40
2022/05/28 06:01:33;;;;;;;7.90;1.83;;;;;;;20.50;45.29;102163.59;5073908;28;20041;-42
2022/05/28 06:03:59;;;;;;;10.35;1.80;;;;;;;22.48;40.78;102161.59;5073958;28;20529;-41
2022/05/28 06:06:26;;;;;;;5.65;1.67;;;;;;;25.28;34.46;102159.81;5074164;28;20028;-41
2022/05/28 06:08:51;;;;;;;7.72;1.75;;;;;;;23.61;37.36;102168.88;5052374;28;20041;-42
2022/05/28 06:11:16;;;;;;;7.95;1.35;;;;;;;22.24;38.93;102171.41;5053705;28;20468;-42
2022/05/28 06:13:42;;;;;;;12.20;1.77;;;;;;;23.06;38.45;102166.94;5053376;28;20029;-41
2022/05/28 06:16:07;;;;;;;9.27;2.05;;;;;;;24.80;34.39;102177.31;5053907;28;20025;-45
2022/05/28 06:18:33;;;;;;;11.68;1.88;;;;;;;22.63;37.84;102169.00;5053500;28;20422;-41
2022/05/28 06:20:59;;;;;;;11.65;1.92;;;;;;;21.57;39.18;102173.50;5054026;28;20029;-39
2022/05/28 06:23:25;;;;;;;11.75;1.92;;;;;;;23.97;34.58;102170.25;5053706;28;20037;-41
2022/05/28 06:25:51;;;;;;;8.50;1.48;;;;;;;24.84;33.44;102175.78;5054097;28;20025;-42
2022/05/28 06:28:17;;;;;;;6.72;1.60;;;;;;;25.51;31.74;102172.69;5053728;28;20356;-40
2022/05/28 06:30:44;;;;;;;11.48;1.73;;;;;;;24.66;32.32;102169.78;5053673;28;20104;-40
2022/05/28 06:33:11;;;;;;;9.50;1.90;;;;;;;24.19;33.35;102183.44;5053595;28;20487;-40
2022/05/28 06:35:36;;;;;;;6.65;2.08;;;;;;;23.82;33.48;102176.09;5053549;28;20078;-41
2022/05/28 06:38:02;;;;;;;6.10;1.48;;;;;;;25.18;31.56;102171.91;5053863;28;20029;-40
2022/05/28 06:40:28;;;;;;;8.80;2.20;;;;;;;22.63;37.76;102176.13;5052110;28;20395;-41
2022/05/28 06:42:56;;;;;;;14.05;2.00;;;;;;;19.39;41.51;102180.88;5053114;28;20025;-42
2022/05/28 06:45:22;;;;;;;7.32;1.60;;;;;;;25.33;31.99;102173.09;5053019;28;20142;-41
2022/05/28 06:47:48;;;;;;;11.07;1.95;;;;;;;21.68;38.23;102159.56;5053058;28;20526;-41
2022/05/28 06:53:00;;;;;;;12.52;1.83;;;;;;;16.89;49.37;102185.91;5053325;28;20124;-42
2022/05/28 06:55:26;;;;;;;10.98;1.70;;;;;;;15.65;54.67;102176.97;5053121;28;20535;-41
2022/05/28 06:58:06;;;;;;;12.63;1.77;;;;;;;14.64;57.36;102184.63;5053132;28;20426;-41
2022/05/28 07:00:31;;;;;;;7.57;1.63;;;;;;;14.07;59.33;102177.34;5054032;28;20431;-41
2022/05/28 07:02:57;;;;;;;15.30;2.55;;;;;;;13.59;60.53;102174.16;5056867;28;20029;-42
2022/05/28 07:05:22;;;;;;;15.20;2.05;;;;;;;13.44;60.86;102185.28;5056784;28;20456;-40
2022/05/28 07:07:47;;;;;;;8.77;1.90;;;;;;;15.67;55.15;102186.22;5059137;28;20405;-42
2022/05/28 07:10:13;;;;;;;7.40;1.65;;;;;;;16.82;52.14;102184.28;5077380;28;20028;-42
2022/05/28 07:12:38;;;;;;;11.00;1.90;;;;;;;17.32;50.20;102185.66;5076915;28;20020;-43
2022/05/28 07:15:04;;;;;;;9.32;1.55;;;;;;;17.64;45.76;102191.16;5076912;28;20077;-41
2022/05/28 07:17:30;;;;;;;6.40;1.55;;;;;;;17.71;43.58;102191.16;5077476;28;20107;-41
2022/05/28 07:19:55;;;;;;;7.32;1.80;;;;;;;17.34;44.11;102188.88;5076585;28;20048;-40
2022/05/28 07:22:20;;;;;;;8.82;1.65;;;;;;;17.72;44.24;102190.13;5076772;28;20025;-40
2022/05/28 07:24:46;;;;;;;10.35;2.00;;;;;;;17.60;44.58;102185.50;5076698;28;20016;-41
2022/05/28 07:27:12;;;;;;;10.43;1.80;;;;;;;17.59;46.45;102183.88;5076371;28;20025;-41
2022/05/28 07:29:39;;;;;;;6.68;1.92;;;;;;;17.91;47.32;102191.19;5076381;28;20043;-41
2022/05/28 07:32:05;;;;;;;7.50;1.45;;;;;;;18.58;44.53;102194.50;5076688;28;20024;-40
2022/05/28 07:34:31;;;;;;;10.38;2.15;;;;;;;18.47;44.94;102193.31;5076208;28;20111;-41
2022/05/28 07:36:56;;;;;;;10.57;1.90;;;;;;;17.69;45.43;102190.53;5058704;28;20467;-41
2022/05/28 07:39:21;;;;;;;7.57;1.73;;;;;;;18.37;42.83;102185.91;5076317;28;20039;-41
2022/05/28 07:41:48;;;;;;;11.43;2.22;;;;;;;18.45;42.67;102184.88;5076440;28;20078;-41
2022/05/28 07:44:13;;;;;;;7.82;1.58;;;;;;;18.90;44.65;102196.25;5076480;28;20023;-41
2022/05/28 07:46:39;;;;;;;9.73;2.20;;;;;;;17.93;46.03;102174.28;5076257;28;20379;-49
2022/05/28 07:49:05;;;;;;;7.40;1.75;;;;;;;18.01;44.90;102189.78;5058098;28;20036;-41
2022/05/28 07:51:30;;;;;;;9.45;1.80;;;;;;;17.41;45.83;102194.13;5076264;28;20440;-41
2022/05/28 07:53:56;;;;;;;11.68;1.85;;;;;;;16.26;50.26;102186.94;5076210;28;20157;-41
2022/05/28 07:56:21;;;;;;;8.35;1.98;;;;;;;15.88;51.95;102197.66;5076345;28;20031;-42
2022/05/28 07:58:47;;;;;;;9.80;2.03;;;;;;;16.83;50.62;102204.16;5076172;28;20103;-40
2022/05/28 08:01:27;;;;;;;8.90;2.05;;;;;;;16.87;49.00;102198.34;5076478;28;20044;-41
2022/05/28 08:03:54;;;;;;;15.10;1.90;;;;;;;16.32;51.58;102183.56;5074942;28;20093;-41
2022/05/28 08:06:19;;;;;;;9.57;2.13;;;;;;;17.90;48.21;102190.38;5057234;28;20020;-42
2022/05/28 08:08:45;;;;;;;11.00;2.00;;;;;;;18.94;46.94;102196.63;5075969;28;20055;-42
2022/05/28 08:11:10;;;;;;;10.85;2.17;;;;;;;18.90;45.88;102185.78;5075488;28;20052;-40
2022/05/28 08:13:36;;;;;;;14.02;2.53;;;;;;;19.23;45.67;102184.81;5074617;28;20029;-40
2022/05/28 08:16:02;;;;;;;9.80;2.00;;;;;;;19.68;44.12;102183.94;5075853;28;20020;-46
2022/05/28 08:18:28;;;;;;;11.77;1.80;;;;;;;19.69;44.65;102193.41;5075690;28;20118;-43
2022/05/28 08:23:40;;;;;;;9.57;2.00;;;;;;;17.75;47.05;102187.13;5076126;28;20374;-42
2022/05/28 08:26:06;;;;;;;10.00;2.10;;;;;;;17.56;47.61;102178.25;5075781;28;20071;-42
2022/05/28 08:28:32;;;;;;;9.63;2.08;;;;;;;18.27;45.26;102181.09;5057540;28;20021;-43
2022/05/28 08:30:57;;;;;;;10.60;1.70;;;;;;;18.72;45.23;102190.84;5057519;28;20058;-42
2022/05/28 08:33:23;;;;;;;12.20;2.03;;;;;;;18.88;45.09;102187.81;5057253;28;20031;-41
2022/05/28 08:35:50;;;;;;;5.97;1.75;;;;;;;19.97;42.75;102182.50;5075736;28;20021;-41
2022/05/28 08:38:18;;;;;;;8.82;2.03;;;;;;;19.74;40.80;102193.59;5075461;28;20111;-42
2022/05/28 08:40:45;;;;;;;9.20;2.25;;;;;;;20.16;42.27;102199.88;5058096;28;20039;-42
2022/05/28 08:43:13;;;;;;;13.38;2.30;;;;;;;20.20;42.83;102166.94;5075564;28;20020;-43
2022/05/28 08:45:39;;;;;;;13.07;2.13;;;;;;;18.86;44.57;102197.66;5040781;28;20039;-42
2022/05/28 08:48:16;;;;;;;13.18;1.95;;;;;;;17.20;46.35;102192.44;5075412;28;20032;-43
2022/05/28 08:50:50;;;;;;;9.77;1.70;;;;;;;17.58;47.40;102191.94;5057041;28;20479;-40
2022/05/28 08:53:20;;;;;;;12.10;2.08;;;;;;;19.06;44.82;102187.09;5040461;28;20037;-40
2022/05/28 08:55:49;;;;;;;7.93;1.95;;;;;;;19.82;42.76;102196.75;5074875;28;20068;-41
2022/05/28 08:58:20;;;;;;;8.30;2.00;;;;;;;19.53;39.16;102192.88;5056818;28;20055;-41
2022/05/28 09:01:02;;;;;;;8.95;1.98;;;;;;;19.78;38.55;102195.56;5075366;28;20036;-41
2022/05/28 09:03:33;;;;;;;8.35;1.80;;;;;;;19.27;39.52;102193.03;5057301;28;20120;-41
2022/05/28 09:06:03;;;;;;;10.63;2.10;;;;;;;19.24;42.27;102193.47;5056854;28;20478;-43
2022/05/28 09:08:33;;;;;;;8.55;1.77;;;;;;;18.95;44.31;102195.63;5056890;28;20053;-41
2022/05/28 09:11:04;;;;;;;13.10;2.20;;;;;;;19.66;42.30;102194.66;5074026;28;20024;-42
2022/05/28 09:13:49;;;;;;;10.63;1.88;;;;;;;18.87;45.12;102185.38;5056942;28;20024;-41
2022/05/28 09:16:26;;;;;;;18.58;1.90;;;;;;;19.76;41.92;102202.03;5075390;28;20024;-41
2022/05/28 09:18:53;;;;;;;11.70;2.28;;;;;;;19.19;42.37;102201.97;5057285;28;20418;-41
2022/05/28 09:21:19;;;;;;;12.82;2.03;;;;;;;19.59;41.22;102196.47;5074504;28;20020;-42
2022/05/28 09:23:58;;;;;;;8.90;1.95;;;;;;;19.34;43.34;102194.63;5074574;28;20041;-40
2022/05/28 09:26:32;;;;;;;8.15;1.52;;;;;;;18.08;45.11;102195.00;5074363;28;20031;-40
2022/05/28 09:29:00;;;;;;;8.60;1.92;;;;;;;18.74;45.17;102196.72;5056459;28;20032;-41
2022/05/28 09:32:05;;;;;;;11.50;2.22;;;;;;;19.30;44.09;102192.63;5074531;28;20471;-44
2022/05/28 09:34:43;;;;;;;10.80;2.10;;;;;;;19.48;42.45;102200.59;5074666;28;20024;-41
2022/05/28 09:37:23;;;;;;;11.82;2.13;;;;;;;18.62;42.93;102190.50;5057134;28;20032;-41
2022/05/28 09:40:05;;;;;;;13.60;2.20;;;;;;;19.49;42.82;102190.91;5056306;28;20032;-40
2022/05/28 09:42:46;;;;;;;6.70;1.90;;;;;;;18.80;43.51;102197.69;5056132;28;20024;-39
2022/05/28 09:45:27;;;;;;;12.20;2.15;;;;;;;17.65;42.53;102197.97;5056717;28;20463;-40
2022/05/28 09:47:53;;;;;;;7.05;2.00;;;;;;;17.74;44.45;102185.50;5073906;28;20526;-41
2022/05/28 09:50:37;;;;;;;9.50;2.10;;;;;;;19.00;44.88;102192.38;5039622;28;20025;-41
2022/05/28 09:55:58;;;;;;;7.35;1.80;;;;;;;17.68;45.63;102183.69;5073850;28;20125;-41
2022/05/28 09:58:27;;;;;;;8.52;1.65;;;;;;;17.47;42.30;102202.97;5074168;28;20439;-40
2022/05/28 10:01:07;;;;;;;7.65;1.95;;;;;;;18.86;39.69;102200.28;5073704;28;20021;-40
2022/05/28 10:06:23;;;;;;;5.78;1.70;;;;;;;20.06;36.89;102184.63;5060032;28;20043;-42
2022/05/28 10:08:48;;;;;;;7.28;1.48;;;;;;;19.54;37.10;102189.25;5073656;28;20051;-41
2022/05/28 10:11:18;;;;;;;7.97;1.65;;;;;;;20.01;36.58;102170.53;5073854;28;20459;-40
2022/05/28 10:13:53;;;;;;;9.02;1.42;;;;;;;19.86;39.57;102185.81;5056735;28;20020;-41
2022/05/28 10:16:24;;;;;;;6.45;1.95;;;;;;;20.53;38.35;102173.69;5074146;28;20063;-41
2022/05/28 10:18:56;;;;;;;9.63;1.80;;;;;;;20.78;36.96;102189.34;5073530;28;20029;-41
2022/05/28 10:21:27;;;;;;;7.50;1.35;;;;;;;20.87;37.26;102177.50;5073852;28;20020;-41
2022/05/28 10:23:57;;;;;;;7.47;1.98;;;;;;;21.26;36.64;102170.13;5055828;28;20055;-40
2022/05/28 10:26:54;;;;;;;8.43;2.17;;;;;;;20.71;35.76;102165.81;5055647;28;20028;-40
2022/05/28 10:29:27;;;;;;;8.93;2.00;;;;;;;20.19;37.18;102165.31;5061364;28;20047;-41
2022/05/28 10:31:54;;;;;;;9.45;1.83;;;;;;;20.09;37.94;102169.47;5073651;28;20035;-40
2022/05/28 10:34:41;;;;;;;9.60;1.83;;;;;;;20.65;38.73;102176.38;5055870;28;20027;-40
2022/05/28 10:37:19;;;;;;;7.97;2.10;;;;;;;20.92;36.83;102171.59;5054767;28;20033;-42
2022/05/28 10:39:44;;;;;;;10.93;2.10;;;;;;;21.47;36.48;102173.28;5073580;28;20025;-42
2022/05/28 10:42:12;;;;;;;8.68;2.28;;;;;;;21.20;37.08;102168.38;5073549;28;20482;-42
2022/05/28 10:44:40;;;;;;;9.98;2.10;;;;;;;21.71;37.21;102172.28;5055195;28;20021;-39
2022/05/28 10:47:18;;;;;;;11.20;2.25;;;;;;;20.83;38.98;102159.78;5055718;28;20025;-40
2022/05/28 10:50:21;;;;;;;11.25;2.30;;;;;;;19.39;41.13;102168.59;5073400;28;20033;-40
2022/05/28 10:53:01;;;;;;;13.05;2.30;;;;;;;20.55;38.87;102163.75;5073082;28;20020;-40
2022/05/28 10:55:58;;;;;;;9.85;2.63;;;;;;;20.12;41.02;102172.47;5073322;28;20513;-41
2022/05/28 10:58:38;;;;;;;10.20;2.10;;;;;;;19.29;38.24;102164.81;5055241;28;20032;-39
2022/05/28 11:01:20;;;;;;;10.35;2.00;;;;;;;20.70;36.10;102171.25;5054962;28;20089;-42
2022/05/28 11:04:24;;;;;;;9.23;2.30;;;;;;;20.76;33.87;102165.13;5072906;28;20063;-40
2022/05/28 11:07:16;;;;;;;9.68;2.70;;;;;;;19.52;36.18;102159.00;5034649;28;20123;-40
2022/05/28 11:10:02;;;;;;;4.65;1.70;;;;;;;19.23;36.99;102158.59;5072754;28;20137;-40
2022/05/28 11:12:44;;;;;;;9.40;1.80;;;;;;;19.81;36.70;102158.41;5054860;28;20479;-42
2022/05/28 11:15:32;;;;;;;10.20;1.85;;;;;;;20.91;34.56;102170.78;5056377;28;20067;-40
2022/05/28 11:18:17;;;;;;;6.00;1.58;;;;;;;21.25;32.95;102168.50;5073240;28;20030;-41
2022/05/28 11:21:17;;;;;;;9.13;2.00;;;;;;;21.05;35.00;102154.84;5072842;28;20029;-40
2022/05/28 11:24:03;;;;;;;5.25;1.63;;;;;;;20.35;33.47;102157.91;5055261;28;20027;-40
2022/05/28 11:26:46;;;;;;;9.35;2.00;;;;;;;19.77;38.22;102162.47;5073027;28;20034;-42
2022/05/28 11:29:41;;;;;;;7.13;1.75;;;;;;;19.54;40.11;102149.94;5072929;28;20425;-40
2022/05/28 11:32:16;;;;;;;9.98;1.70;;;;;;;19.05;40.39;102158.50;5054759;28;20031;-41
2022/05/28 11:34:54;;;;;;;9.00;2.05;;;;;;;19.07;42.11;102159.09;5071961;28;20028;-42
2022/05/28 11:37:54;;;;;;;9.90;2.17;;;;;;;20.62;40.11;102161.84;5072705;28;20112;-41
2022/05/28 11:40:24;;;;;;;11.70;1.80;;;;;;;21.27;36.60;102155.16;5073143;28;20028;-40
2022/05/28 11:43:01;;;;;;;5.82;2.00;;;;;;;21.18;39.07;102157.28;5072656;28;20020;-41
2022/05/28 11:45:41;;;;;;;11.10;2.40;;;;;;;19.44;39.95;102157.44;5072699;28;20051;-40
2022/05/28 11:48:19;;;;;;;10.20;1.98;;;;;;;20.54;38.95;102135.88;5073994;28;20033;-41